createdAt,value
2017-12-19T00:00:09.341Z,77.47
2017-12-19T00:02:43.926Z,77.40
2017-12-19T00:05:18.324Z,77.25
2017-12-19T00:07:52.674Z,77.19
2017-12-19T00:10:26.505Z,77.35
2017-12-19T00:13:01.069Z,77.11
2017-12-19T00:15:35.858Z,77.12
2017-12-19T00:18:10.570Z,77.31
2017-12-19T00:20:45.661Z,77.51
2017-12-19T00:23:19.753Z,77.74
2017-12-19T00:25:53.938Z,77.83
2017-12-19T00:28:28.344Z,78.08
2017-12-19T00:31:02.783Z,78.23
2017-12-19T00:33:37.363Z,78.30
2017-12-19T00:36:11.426Z,78.43
2017-12-19T00:38:45.862Z,78.36
2017-12-19T00:41:20.242Z,78.43
2017-12-19T00:43:55.321Z,78.50
2017-12-19T00:46:30.402Z,78.35
2017-12-19T00:49:05.196Z,78.11
2017-12-19T00:51:39.269Z,78.13
2017-12-19T00:54:14.246Z,77.64
2017-12-19T00:56:49.023Z,77.43
2017-12-19T00:59:23.598Z,77.49
2017-12-19T01:01:57.992Z,77.29
2017-12-19T01:04:32.564Z,77.41
2017-12-19T01:07:06.994Z,77.20
2017-12-19T01:09:41.206Z,77.25
2017-12-19T01:12:15.583Z,77.20
2017-12-19T01:14:50.050Z,77.22
2017-12-19T01:17:24.753Z,76.97
2017-12-19T01:19:59.118Z,76.95
2017-12-19T01:22:33.623Z,77.18
2017-12-19T01:25:14.770Z,77.30
2017-12-19T01:27:49.181Z,77.15
2017-12-19T01:30:23.966Z,77.26
2017-12-19T01:33:00.063Z,77.28
2017-12-19T01:35:34.574Z,77.36
2017-12-19T01:38:09.341Z,77.48
2017-12-19T01:40:44.086Z,77.42
2017-12-19T01:43:18.574Z,77.40
2017-12-19T01:45:53.029Z,77.39
2017-12-19T01:48:27.519Z,77.59
2017-12-19T01:51:02.284Z,77.62
2017-12-19T01:53:37.163Z,77.59
2017-12-19T01:56:11.532Z,77.60
2017-12-19T01:58:46.140Z,77.56
2017-12-19T02:01:20.853Z,77.70
2017-12-19T02:03:55.662Z,77.92
2017-12-19T02:06:30.357Z,77.88
2017-12-19T02:09:04.182Z,77.99
2017-12-19T02:11:38.954Z,78.00
2017-12-19T02:14:13.370Z,77.99
2017-12-19T02:16:47.701Z,78.03
2017-12-19T02:19:22.170Z,78.12
2017-12-19T02:21:57.750Z,77.96
2017-12-19T02:24:33.913Z,77.75
2017-12-19T02:27:08.266Z,77.68
2017-12-19T02:29:42.777Z,77.56
2017-12-19T02:32:18.162Z,77.50
2017-12-19T02:34:52.526Z,77.54
2017-12-19T02:37:26.983Z,77.51
2017-12-19T02:40:02.442Z,77.56
2017-12-19T02:42:53.718Z,77.49
2017-12-19T02:45:28.201Z,77.31
2017-12-19T02:48:02.983Z,77.24
2017-12-19T02:50:37.177Z,77.01
2017-12-19T02:53:11.921Z,76.97
2017-12-19T02:55:46.382Z,77.07
2017-12-19T02:58:21.126Z,77.01
2017-12-19T03:00:56.246Z,77.03
2017-12-19T03:03:30.606Z,77.30
2017-12-19T03:06:05.926Z,77.79
2017-12-19T03:08:40.475Z,77.86
2017-12-19T03:11:14.895Z,78.08
2017-12-19T03:13:49.231Z,78.34
2017-12-19T03:16:24.130Z,78.55
2017-12-19T03:18:59.447Z,78.59
2017-12-19T03:21:33.818Z,78.66
2017-12-19T03:24:08.546Z,78.80
2017-12-19T03:26:42.907Z,78.85
2017-12-19T03:29:17.254Z,79.00
2017-12-19T03:31:51.618Z,79.07
2017-12-19T03:34:26.061Z,79.09
2017-12-19T03:37:00.585Z,79.05
2017-12-19T03:39:35.042Z,79.06
2017-12-19T03:42:09.481Z,79.18
2017-12-19T03:44:43.849Z,79.20
2017-12-19T03:47:18.307Z,79.14
2017-12-19T03:49:52.718Z,79.20
2017-12-19T03:52:27.838Z,79.28
2017-12-19T03:55:02.364Z,79.43
2017-12-19T03:57:42.187Z,79.55
2017-12-19T04:00:16.709Z,79.50
2017-12-19T04:02:51.128Z,79.54
2017-12-19T04:05:26.040Z,79.40
2017-12-19T04:08:00.775Z,79.36
2017-12-19T04:10:35.126Z,79.16
2017-12-19T04:13:09.926Z,79.29
2017-12-19T04:15:44.393Z,79.12
2017-12-19T04:18:18.757Z,79.12
2017-12-19T04:20:53.108Z,79.18
2017-12-19T04:23:28.019Z,79.02
2017-12-19T04:26:02.370Z,78.84
2017-12-19T04:28:36.742Z,78.69
2017-12-19T04:31:11.186Z,78.60
2017-12-19T04:33:46.534Z,78.50
2017-12-19T04:36:21.865Z,78.76
2017-12-19T04:38:57.649Z,78.71
2017-12-19T04:41:33.126Z,78.60
2017-12-19T04:44:07.662Z,78.47
2017-12-19T04:46:42.049Z,78.40
2017-12-19T04:49:16.406Z,78.31
2017-12-19T04:51:50.771Z,77.97
2017-12-19T04:54:25.297Z,77.87
2017-12-19T04:57:00.026Z,77.78
2017-12-19T04:59:34.834Z,77.74
2017-12-19T05:02:09.654Z,77.73
2017-12-19T05:04:44.142Z,77.67
2017-12-19T05:07:18.534Z,77.83
2017-12-19T05:09:53.064Z,77.70
2017-12-19T05:12:27.545Z,77.78
2017-12-19T05:15:02.068Z,77.70
2017-12-19T05:17:36.492Z,77.57
2017-12-19T05:20:13.953Z,77.48
2017-12-19T05:22:48.566Z,77.18
2017-12-19T05:25:22.920Z,77.13
2017-12-19T05:27:57.445Z,77.30
2017-12-19T05:30:31.955Z,77.37
2017-12-19T05:33:06.540Z,77.84
2017-12-19T05:35:41.158Z,78.03
2017-12-19T05:38:15.989Z,78.39
2017-12-19T05:40:50.418Z,78.78
2017-12-19T05:43:24.907Z,78.86
2017-12-19T05:45:59.462Z,78.99
2017-12-19T05:48:34.430Z,79.26
2017-12-19T05:51:08.943Z,79.40
2017-12-19T05:53:43.685Z,79.28
2017-12-19T05:56:18.909Z,79.39
2017-12-19T05:58:53.335Z,79.47
2017-12-19T06:01:27.814Z,79.23
2017-12-19T06:04:02.283Z,79.05
2017-12-19T06:06:38.780Z,79.44
2017-12-19T06:09:13.272Z,79.67
2017-12-19T06:11:47.641Z,79.74
2017-12-19T06:14:21.986Z,79.88
2017-12-19T06:16:57.106Z,79.78
2017-12-19T06:19:31.542Z,79.84
2017-12-19T06:22:06.430Z,79.82
2017-12-19T06:24:41.619Z,79.79
2017-12-19T06:27:16.078Z,79.69
2017-12-19T06:29:50.894Z,79.71
2017-12-19T06:32:25.469Z,79.58
2017-12-19T06:35:00.040Z,79.51
2017-12-19T06:37:34.504Z,79.59
2017-12-19T06:40:13.770Z,79.60
2017-12-19T06:42:48.263Z,79.55
2017-12-19T06:45:23.014Z,79.58
2017-12-19T06:47:57.547Z,79.54
2017-12-19T06:50:31.985Z,79.51
2017-12-19T06:53:06.749Z,79.31
2017-12-19T06:55:41.739Z,79.04
2017-12-19T06:58:16.183Z,78.84
2017-12-19T07:00:50.542Z,79.07
2017-12-19T07:03:25.266Z,79.12
2017-12-19T07:05:59.678Z,78.92
2017-12-19T07:08:34.210Z,78.67
2017-12-19T07:11:08.618Z,78.62
2017-12-19T07:13:43.035Z,78.68
2017-12-19T07:16:17.412Z,78.74
2017-12-19T07:18:52.998Z,78.93
2017-12-19T07:21:27.506Z,78.75
2017-12-19T07:24:01.963Z,78.55
2017-12-19T07:26:36.301Z,78.58
2017-12-19T07:29:10.682Z,78.08
2017-12-19T07:31:45.266Z,77.56
2017-12-19T07:34:19.603Z,77.44
2017-12-19T07:36:54.311Z,77.31
2017-12-19T07:39:28.818Z,77.07
2017-12-19T07:42:02.910Z,77.20
2017-12-19T07:44:37.638Z,76.93
2017-12-19T07:47:12.118Z,76.70
2017-12-19T07:49:46.805Z,76.31
2017-12-19T07:52:21.662Z,76.14
2017-12-19T07:54:56.505Z,75.83
2017-12-19T07:57:31.258Z,75.64
2017-12-19T08:00:09.543Z,75.61
2017-12-19T08:02:45.075Z,75.36
2017-12-19T08:05:19.793Z,74.94
2017-12-19T08:07:55.466Z,74.69
2017-12-19T08:10:30.013Z,74.57
2017-12-19T08:13:04.477Z,74.25
2017-12-19T08:15:38.906Z,73.58
2017-12-19T08:18:14.102Z,72.84
2017-12-19T08:20:48.352Z,72.54
2017-12-19T08:23:22.763Z,71.82
2017-12-19T08:25:57.458Z,71.27
2017-12-19T08:28:32.258Z,70.46
2017-12-19T08:31:06.737Z,70.00
2017-12-19T08:33:41.419Z,69.55
2017-12-19T08:36:16.784Z,69.25
2017-12-19T08:38:51.634Z,69.04
2017-12-19T08:41:25.990Z,68.75
2017-12-19T08:44:01.513Z,68.61
2017-12-19T08:46:36.089Z,68.22
2017-12-19T08:49:10.571Z,68.57
2017-12-19T08:51:44.935Z,68.36
2017-12-19T08:54:19.550Z,68.33
2017-12-19T08:56:53.962Z,67.69
2017-12-19T08:59:29.471Z,67.72
2017-12-19T09:02:03.883Z,67.63
2017-12-19T09:04:39.631Z,67.55
2017-12-19T09:07:14.448Z,67.28
2017-12-19T09:09:49.038Z,67.43
2017-12-19T09:12:23.499Z,67.24
2017-12-19T09:14:58.066Z,67.26
2017-12-19T09:17:32.535Z,67.25
2017-12-19T09:20:08.083Z,66.86
2017-12-19T09:22:43.310Z,66.94
2017-12-19T09:25:17.924Z,66.62
2017-12-19T09:27:52.322Z,66.72
2017-12-19T09:30:26.969Z,66.08
2017-12-19T09:33:02.190Z,66.28
2017-12-19T09:35:36.779Z,65.92
2017-12-19T09:38:11.380Z,65.59
2017-12-19T09:40:45.770Z,65.75
2017-12-19T09:43:20.363Z,65.69
2017-12-19T09:45:55.004Z,65.40
2017-12-19T09:48:29.567Z,65.26
2017-12-19T09:51:03.962Z,65.07
2017-12-19T09:53:38.393Z,65.02
2017-12-19T09:56:12.775Z,64.86
2017-12-19T09:58:47.444Z,64.60
2017-12-19T10:01:21.862Z,64.83
2017-12-19T10:03:56.547Z,64.40
2017-12-19T10:06:31.116Z,64.25
2017-12-19T10:09:05.096Z,64.34
2017-12-19T10:11:39.448Z,63.96
2017-12-19T10:14:14.026Z,63.36
2017-12-19T10:16:48.500Z,59.47
2017-12-19T10:19:23.022Z,57.78
2017-12-19T10:21:57.647Z,57.64
2017-12-19T10:24:31.890Z,56.49
2017-12-19T10:27:06.076Z,54.34
2017-12-19T10:29:40.120Z,53.99
2017-12-19T10:32:14.393Z,53.67
2017-12-19T10:34:48.593Z,54.42
2017-12-19T10:37:22.728Z,55.56
2017-12-19T10:39:57.286Z,55.88
2017-12-19T10:42:31.653Z,56.58
2017-12-19T10:45:15.145Z,56.75
2017-12-19T10:47:49.718Z,57.42
2017-12-19T10:50:24.090Z,57.65
2017-12-19T10:52:58.631Z,58.57
2017-12-19T10:55:33.023Z,58.76
2017-12-19T10:58:07.579Z,59.01
2017-12-19T11:00:41.737Z,58.48
2017-12-19T11:03:16.122Z,58.35
2017-12-19T11:05:51.591Z,58.56
2017-12-19T11:08:26.233Z,58.78
2017-12-19T11:11:00.994Z,59.67
2017-12-19T11:13:35.764Z,59.29
2017-12-19T11:16:10.231Z,59.92
2017-12-19T11:18:44.739Z,59.77
2017-12-19T11:21:19.266Z,59.71
2017-12-19T11:23:53.438Z,60.42
2017-12-19T11:26:28.258Z,59.48
2017-12-19T11:29:02.645Z,60.35
2017-12-19T11:31:36.642Z,59.87
2017-12-19T11:34:10.741Z,60.35
2017-12-19T11:36:44.919Z,60.08
2017-12-19T11:39:19.091Z,59.81
2017-12-19T11:41:53.669Z,58.95
2017-12-19T11:44:28.249Z,58.87
2017-12-19T11:47:02.763Z,57.46
2017-12-19T11:49:37.262Z,57.13
2017-12-19T11:52:11.637Z,56.89
2017-12-19T11:54:46.215Z,56.72
2017-12-19T11:57:20.614Z,57.51
2017-12-19T11:59:55.121Z,57.14
2017-12-19T12:02:29.535Z,56.48
2017-12-19T12:05:05.654Z,55.93
2017-12-19T12:07:40.253Z,55.76
2017-12-19T12:10:14.672Z,55.75
2017-12-19T12:12:49.206Z,54.79
2017-12-19T12:15:23.721Z,54.37
2017-12-19T12:17:58.344Z,55.21
2017-12-19T12:20:33.077Z,55.44
2017-12-19T12:23:07.837Z,54.96
2017-12-19T12:25:42.381Z,54.21
2017-12-19T12:28:16.872Z,53.94
2017-12-19T12:30:52.008Z,53.40
2017-12-19T12:33:26.500Z,52.96
2017-12-19T12:36:01.153Z,53.15
2017-12-19T12:38:35.638Z,54.20
2017-12-19T12:41:10.210Z,55.07
2017-12-19T12:43:44.642Z,55.25
2017-12-19T12:46:19.092Z,55.98
2017-12-19T12:48:53.514Z,55.90
2017-12-19T12:51:27.917Z,56.51
2017-12-19T12:54:03.063Z,56.48
2017-12-19T12:56:37.767Z,57.31
2017-12-19T12:59:12.376Z,57.93
2017-12-19T13:01:46.457Z,58.03
2017-12-19T13:04:20.563Z,58.34
2017-12-19T13:06:54.711Z,57.87
2017-12-19T13:09:29.087Z,57.31
2017-12-19T13:12:03.174Z,57.73
2017-12-19T13:14:37.530Z,57.57
2017-12-19T13:17:11.654Z,57.62
2017-12-19T13:19:46.278Z,57.54
2017-12-19T13:22:20.659Z,57.56
2017-12-19T13:24:55.190Z,57.86
2017-12-19T13:27:29.614Z,58.04
2017-12-19T13:30:11.302Z,58.42
2017-12-19T13:32:45.681Z,58.98
2017-12-19T13:35:20.072Z,58.81
2017-12-19T13:37:55.014Z,58.43
2017-12-19T13:40:29.521Z,58.83
2017-12-19T13:43:03.900Z,58.61
2017-12-19T13:45:38.281Z,58.74
2017-12-19T13:48:12.851Z,58.82
2017-12-19T13:50:47.221Z,58.38
2017-12-19T13:53:21.720Z,58.36
2017-12-19T13:55:56.829Z,58.08
2017-12-19T13:58:30.995Z,57.82
2017-12-19T14:01:05.394Z,57.89
2017-12-19T14:03:39.766Z,57.88
2017-12-19T14:06:14.227Z,58.39
2017-12-19T14:08:48.678Z,58.41
2017-12-19T14:11:23.056Z,57.96
2017-12-19T14:13:57.552Z,58.86
2017-12-19T14:16:32.341Z,59.00
2017-12-19T14:19:06.842Z,59.58
2017-12-19T14:21:41.333Z,59.35
2017-12-19T14:24:15.813Z,59.46
2017-12-19T14:26:50.210Z,59.90
2017-12-19T14:29:24.814Z,60.24
2017-12-19T14:31:59.342Z,60.38
2017-12-19T14:34:33.858Z,60.79
2017-12-19T14:37:08.264Z,61.28
2017-12-19T14:39:42.801Z,61.44
2017-12-19T14:42:17.178Z,61.64
2017-12-19T14:44:51.698Z,61.78
2017-12-19T14:47:26.095Z,61.74
2017-12-19T14:50:00.646Z,62.01
2017-12-19T14:52:35.158Z,61.83
2017-12-19T14:55:09.817Z,62.33
2017-12-19T14:57:44.405Z,62.42
2017-12-19T15:00:18.818Z,62.58
2017-12-19T15:02:53.410Z,62.97
2017-12-19T15:05:28.867Z,63.11
2017-12-19T15:08:03.437Z,63.75
2017-12-19T15:10:37.823Z,64.33
2017-12-19T15:13:12.194Z,64.49
2017-12-19T15:15:47.802Z,64.63
2017-12-19T15:18:22.318Z,65.06
2017-12-19T15:20:56.849Z,65.47
2017-12-19T15:23:31.288Z,65.61
2017-12-19T15:26:05.669Z,65.88
2017-12-19T15:28:41.576Z,65.68
2017-12-19T15:31:16.014Z,65.86
2017-12-19T15:33:50.210Z,66.09
2017-12-19T15:36:24.717Z,65.89
2017-12-19T15:38:59.210Z,66.19
2017-12-19T15:41:33.728Z,66.17
2017-12-19T15:44:08.203Z,65.92
2017-12-19T15:46:42.296Z,66.08
2017-12-19T15:49:16.658Z,66.17
2017-12-19T15:51:51.202Z,66.06
2017-12-19T15:54:25.832Z,66.11
2017-12-19T15:57:00.227Z,66.16
2017-12-19T15:59:35.158Z,66.50
2017-12-19T16:02:09.646Z,66.67
2017-12-19T16:04:44.156Z,66.66
2017-12-19T16:07:18.581Z,66.82
2017-12-19T16:09:53.091Z,67.16
2017-12-19T16:12:27.521Z,67.35
2017-12-19T16:15:02.049Z,67.51
2017-12-19T16:17:36.402Z,67.80
2017-12-19T16:20:13.860Z,67.49
2017-12-19T16:22:48.290Z,67.26
2017-12-19T16:25:22.792Z,67.39
2017-12-19T16:27:57.291Z,67.53
2017-12-19T16:30:31.705Z,67.44
2017-12-19T16:33:06.172Z,67.42
2017-12-19T16:35:40.690Z,67.52
2017-12-19T16:38:15.274Z,67.48
2017-12-19T16:40:49.829Z,67.22
2017-12-19T16:43:24.332Z,67.61
2017-12-19T16:45:58.724Z,67.49
2017-12-19T16:48:33.181Z,67.77
2017-12-19T16:51:07.538Z,67.46
2017-12-19T16:53:42.109Z,67.41
2017-12-19T16:56:17.001Z,67.21
2017-12-19T16:58:51.511Z,67.23
2017-12-19T17:01:25.977Z,67.02
2017-12-19T17:04:00.438Z,66.86
2017-12-19T17:06:35.062Z,66.69
2017-12-19T17:09:09.528Z,66.46
2017-12-19T17:11:44.003Z,66.41
2017-12-19T17:14:18.505Z,66.26
2017-12-19T17:16:52.880Z,66.27
2017-12-19T17:19:27.510Z,65.78
2017-12-19T17:22:02.807Z,65.57
2017-12-19T17:24:37.408Z,65.36
2017-12-19T17:27:11.838Z,65.42
2017-12-19T17:29:46.079Z,65.36
2017-12-19T17:32:20.580Z,65.34
2017-12-19T17:34:55.876Z,65.33
2017-12-19T17:37:31.766Z,65.38
2017-12-19T17:40:08.390Z,65.29
2017-12-19T17:42:43.005Z,65.24
2017-12-19T17:45:17.420Z,65.11
2017-12-19T17:47:52.058Z,65.30
2017-12-19T17:50:26.442Z,65.03
2017-12-19T17:53:00.947Z,64.88
2017-12-19T17:55:35.318Z,64.89
2017-12-19T17:58:09.692Z,64.82
2017-12-19T18:00:45.161Z,64.82
2017-12-19T18:03:19.808Z,64.77
2017-12-19T18:05:54.274Z,64.77
2017-12-19T18:08:28.674Z,64.66
2017-12-19T18:11:03.175Z,64.38
2017-12-19T18:13:38.465Z,64.58
2017-12-19T18:16:15.299Z,64.66
2017-12-19T18:18:49.798Z,64.80
2017-12-19T18:21:24.357Z,64.85
2017-12-19T18:23:58.727Z,65.17
2017-12-19T18:26:33.084Z,65.29
2017-12-19T18:29:07.695Z,65.37
2017-12-19T18:31:42.098Z,65.42
2017-12-19T18:34:16.632Z,65.61
2017-12-19T18:36:51.068Z,65.71
2017-12-19T18:39:25.597Z,65.91
2017-12-19T18:42:00.051Z,66.24
2017-12-19T18:44:34.535Z,66.30
2017-12-19T18:47:08.894Z,66.47
2017-12-19T18:49:43.529Z,66.61
2017-12-19T18:52:17.922Z,66.42
2017-12-19T18:54:52.397Z,66.49
2017-12-19T18:57:26.878Z,66.44
2017-12-19T19:00:01.414Z,66.29
2017-12-19T19:02:35.811Z,66.29
2017-12-19T19:05:13.519Z,66.44
2017-12-19T19:07:47.894Z,66.24
2017-12-19T19:10:22.256Z,66.18
2017-12-19T19:12:56.689Z,66.12
2017-12-19T19:15:31.087Z,66.04
2017-12-19T19:18:06.315Z,66.18
2017-12-19T19:20:40.857Z,67.26
2017-12-19T19:23:15.343Z,68.35
2017-12-19T19:25:49.743Z,69.16
2017-12-19T19:28:25.220Z,69.85
2017-12-19T19:30:59.620Z,70.97
2017-12-19T19:33:34.130Z,71.81
2017-12-19T19:36:08.496Z,72.70
2017-12-19T19:38:42.976Z,72.95
2017-12-19T19:41:17.544Z,73.20
2017-12-19T19:43:52.011Z,73.73
2017-12-19T19:46:26.814Z,74.43
2017-12-19T19:49:01.170Z,74.90
2017-12-19T19:51:35.562Z,76.14
2017-12-19T19:54:10.004Z,76.88
2017-12-19T19:56:44.434Z,77.78
2017-12-19T19:59:18.911Z,78.73
2017-12-19T20:01:53.397Z,79.23
2017-12-19T20:04:27.749Z,79.36
2017-12-19T20:07:02.421Z,79.62
2017-12-19T20:09:36.965Z,79.32
2017-12-19T20:12:11.451Z,79.21
2017-12-19T20:14:45.974Z,79.79
2017-12-19T20:17:26.271Z,80.75
2017-12-19T20:20:00.819Z,81.31
2017-12-19T20:22:35.307Z,81.39
2017-12-19T20:25:16.162Z,81.81
2017-12-19T20:27:50.750Z,81.71
2017-12-19T20:30:25.159Z,82.02
2017-12-19T20:33:07.859Z,81.95
2017-12-19T20:35:42.244Z,81.98
2017-12-19T20:38:16.727Z,81.90
2017-12-19T20:40:51.179Z,81.81
2017-12-19T20:43:25.596Z,81.49
2017-12-19T20:46:00.767Z,81.50
2017-12-19T20:48:35.372Z,81.75
2017-12-19T20:51:09.980Z,81.99
2017-12-19T20:53:44.448Z,82.28
2017-12-19T20:56:18.886Z,82.26
2017-12-19T20:58:53.037Z,82.22
2017-12-19T21:01:27.504Z,82.25
2017-12-19T21:04:02.651Z,82.12
2017-12-19T21:06:37.789Z,82.09
2017-12-19T21:09:12.199Z,81.98
2017-12-19T21:11:46.570Z,81.90
2017-12-19T21:14:21.094Z,81.81
2017-12-19T21:16:55.465Z,81.82
2017-12-19T21:19:29.987Z,81.71
2017-12-19T21:22:04.417Z,81.67
2017-12-19T21:24:39.898Z,81.43
2017-12-19T21:27:14.347Z,81.17
2017-12-19T21:29:48.725Z,80.85
2017-12-19T21:32:23.182Z,80.78
2017-12-19T21:34:57.538Z,80.34
2017-12-19T21:37:32.018Z,79.94
2017-12-19T21:40:10.402Z,80.07
2017-12-19T21:42:46.438Z,79.76
2017-12-19T21:45:26.657Z,79.58
2017-12-19T21:48:01.047Z,79.33
2017-12-19T21:50:35.739Z,79.18
2017-12-19T21:53:10.152Z,78.96
2017-12-19T21:55:44.542Z,79.46
2017-12-19T21:58:19.055Z,79.26
2017-12-19T22:00:53.705Z,79.47
2017-12-19T22:03:28.282Z,79.57
2017-12-19T22:06:02.965Z,79.75
2017-12-19T22:08:37.273Z,79.95
2017-12-19T22:11:12.130Z,79.79
2017-12-19T22:13:46.606Z,80.00
2017-12-19T22:16:21.728Z,80.13
2017-12-19T22:18:56.282Z,79.89
2017-12-19T22:21:30.737Z,79.91
2017-12-19T22:24:06.426Z,79.85
2017-12-19T22:26:40.908Z,79.79
2017-12-19T22:29:15.430Z,79.96
2017-12-19T22:31:49.887Z,79.94
2017-12-19T22:34:24.394Z,79.79
2017-12-19T22:36:58.697Z,79.89
2017-12-19T22:39:33.111Z,79.84
2017-12-19T22:42:07.515Z,79.85
2017-12-19T22:44:42.047Z,80.05
2017-12-19T22:47:17.224Z,79.94
2017-12-19T22:49:51.790Z,79.84
2017-12-19T22:52:26.236Z,79.99
2017-12-19T22:55:01.010Z,79.89
2017-12-19T22:57:35.640Z,79.89
2017-12-19T23:00:10.041Z,79.93
2017-12-19T23:02:44.558Z,80.07
2017-12-19T23:05:18.964Z,80.14
2017-12-19T23:07:53.488Z,80.06
2017-12-19T23:10:27.879Z,79.92
2017-12-19T23:13:02.433Z,79.86
2017-12-19T23:15:36.846Z,79.71
2017-12-19T23:18:11.366Z,79.69
2017-12-19T23:20:45.767Z,79.54
2017-12-19T23:23:20.280Z,79.57
2017-12-19T23:25:54.706Z,79.46
2017-12-19T23:28:29.295Z,79.47
2017-12-19T23:31:04.090Z,79.25
2017-12-19T23:33:39.239Z,78.91
2017-12-19T23:36:13.626Z,78.98
2017-12-19T23:38:48.167Z,78.96
2017-12-19T23:41:22.586Z,78.79
2017-12-19T23:43:57.123Z,78.61
2017-12-19T23:46:31.490Z,78.57
2017-12-19T23:49:05.970Z,78.46
2017-12-19T23:51:40.476Z,78.24
2017-12-19T23:54:14.985Z,78.24
2017-12-19T23:56:50.098Z,78.30
2017-12-19T23:59:24.476Z,78.39
